Time;durP1;ratioP1;P1;durP2;ratioP2;P2;SDS_P1;SDS_P2;PMS_P1;PMS_P2;Temp;Humidity;BMP_temperature;BMP_pressure;BME280_temperature;BME280_humidity;BME280_pressure;Samples;Min_cycle;Max_cycle;Signal;HPM_P1;HPM_P2
2021/10/01 00:01:07;;;;;;;4.57;1.60;;;13.10;99.90;;;;;;4172101;28;20032;-72
2021/10/01 00:03:08;;;;;;;3.42;1.50;;;13.10;99.90;;;;;;4170465;28;20056;-72
2021/10/01 00:05:09;;;;;;;3.83;1.33;;;13.10;99.90;;;;;;4174488;28;20033;-73
2021/10/01 00:07:11;;;;;;;4.22;1.10;;;13.10;99.90;;;;;;4165309;28;20026;-73
2021/10/01 00:09:11;;;;;;;6.63;1.73;;;13.10;99.90;;;;;;4161913;28;20033;-72
2021/10/01 00:11:12;;;;;;;5.03;1.58;;;13.10;99.90;;;;;;4166313;28;20037;-73
2021/10/01 00:13:13;;;;;;;5.15;1.88;;;13.10;99.90;;;;;;4172965;28;20053;-73
2021/10/01 00:15:13;;;;;;;6.05;1.42;;;13.10;99.90;;;;;;4189564;28;20049;-72
2021/10/01 00:17:15;;;;;;;4.68;1.40;;;13.00;99.90;;;;;;4169016;28;20040;-73
2021/10/01 00:19:17;;;;;;;5.77;1.23;;;13.00;99.90;;;;;;4175035;28;20045;-73
2021/10/01 00:21:18;;;;;;;7.63;1.70;;;12.90;99.90;;;;;;4171448;28;20025;-72
2021/10/01 00:23:18;;;;;;;5.25;1.38;;;13.00;99.90;;;;;;4170316;28;20044;-72
2021/10/01 00:25:19;;;;;;;5.47;1.40;;;13.00;99.90;;;;;;4174223;28;20063;-72
2021/10/01 00:27:20;;;;;;;3.72;1.60;;;13.00;99.90;;;;;;4170415;28;20527;-72
2021/10/01 00:29:20;;;;;;;3.22;1.40;;;13.00;99.90;;;;;;4173672;28;20056;-72
2021/10/01 00:31:21;;;;;;;2.38;1.13;;;13.00;99.90;;;;;;4167364;28;20124;-72
2021/10/01 00:33:22;;;;;;;3.75;1.60;;;13.00;99.90;;;;;;4171930;28;20061;-73
2021/10/01 00:35:22;;;;;;;5.63;1.58;;;13.10;99.90;;;;;;4171628;28;20036;-73
2021/10/01 00:37:23;;;;;;;8.40;1.70;;;13.10;99.90;;;;;;4173305;28;20029;-72
2021/10/01 00:39:24;;;;;;;4.80;1.80;;;13.10;99.90;;;;;;4168254;28;20077;-72
2021/10/01 00:41:26;;;;;;;5.35;1.73;;;13.00;99.90;;;;;;4167751;28;20033;-72
2021/10/01 00:43:26;;;;;;;3.60;1.30;;;13.00;99.90;;;;;;4167304;28;20072;-72
2021/10/01 00:45:27;;;;;;;4.65;1.45;;;13.00;99.90;;;;;;4171698;28;20056;-72
2021/10/01 00:47:28;;;;;;;3.85;1.58;;;13.00;99.90;;;;;;4169478;28;20033;-72
2021/10/01 00:49:28;;;;;;;3.80;1.33;;;13.00;99.90;;;;;;4187186;28;20052;-72
2021/10/01 00:51:31;;;;;;;3.88;1.38;;;13.00;99.90;;;;;;4173143;28;20032;-72
2021/10/01 00:53:33;;;;;;;1.90;1.20;;;12.90;99.90;;;;;;4173676;28;20112;-72
2021/10/01 00:55:34;;;;;;;2.90;1.33;;;13.00;99.90;;;;;;4171777;28;20026;-72
2021/10/01 00:57:35;;;;;;;3.15;1.50;;;13.00;99.90;;;;;;4163585;28;20060;-72
2021/10/01 00:59:35;;;;;;;2.47;1.30;;;12.80;99.90;;;;;;4176090;28;20380;-72
2021/10/01 01:01:36;;;;;;;3.60;1.30;;;12.90;99.90;;;;;;4166924;28;20067;-72
2021/10/01 01:03:59;;;;;;;3.55;1.27;;;12.80;99.90;;;;;;4169615;28;20033;-73
2021/10/01 01:06:27;;;;;;;4.95;1.35;;;12.80;99.90;;;;;;4167369;28;20355;-72
2021/10/01 01:08:42;;;;;;;3.13;1.10;;;12.80;99.90;;;;;;4169068;28;20485;-72
2021/10/01 01:10:53;;;;;;;4.70;1.50;;;12.80;99.90;;;;;;4170796;28;20521;-73
2021/10/01 01:13:19;;;;;;;6.28;1.70;;;12.80;99.90;;;;;;4159512;28;20052;-73
2021/10/01 01:15:27;;;;;;;5.20;1.20;;;12.70;99.90;;;;;;4168664;28;20032;-72
2021/10/01 01:17:44;;;;;;;4.18;1.40;;;12.70;99.90;;;;;;4143273;28;20113;-72
2021/10/01 01:20:07;;;;;;;4.80;1.88;;;12.70;99.90;;;;;;4167508;28;20037;-72
2021/10/01 01:22:39;;;;;;;4.82;1.70;;;12.70;99.90;;;;;;4158156;28;20030;-72
2021/10/01 01:25:24;;;;;;;4.10;1.55;;;12.60;99.90;;;;;;4161406;28;20029;-72
2021/10/01 01:28:09;;;;;;;4.63;1.48;;;12.70;99.90;;;;;;4160097;28;20028;-72
2021/10/01 01:30:15;;;;;;;4.63;1.65;;;12.60;99.90;;;;;;4149878;28;20177;-73
2021/10/01 01:32:21;;;;;;;6.93;1.65;;;12.60;99.90;;;;;;4163802;28;20584;-73
2021/10/01 01:34:29;;;;;;;4.15;1.30;;;12.60;99.90;;;;;;4165839;28;20025;-72
2021/10/01 01:36:30;;;;;;;5.72;1.63;;;12.60;99.90;;;;;;4161961;28;20037;-72
2021/10/01 01:38:38;;;;;;;3.50;1.27;;;12.50;99.90;;;;;;4165629;28;20041;-73
2021/10/01 01:40:43;;;;;;;3.05;1.50;;;12.50;99.90;;;;;;4161432;28;20042;-73
2021/10/01 01:42:46;;;;;;;5.22;1.52;;;12.50;99.90;;;;;;4186453;28;20116;-72
2021/10/01 01:44:46;;;;;;;;;;;12.50;99.90;;;;;;4172385;28;20025;-72
2021/10/01 01:46:48;;;;;;;2.97;1.15;;;12.50;99.90;;;;;;4166294;28;20515;-72
2021/10/01 01:48:50;;;;;;;6.67;1.60;;;12.50;99.90;;;;;;4173560;28;20033;-73
2021/10/01 01:50:51;;;;;;;3.55;1.33;;;12.50;99.90;;;;;;4177402;28;20275;-73
2021/10/01 01:52:53;;;;;;;3.33;1.20;;;12.50;99.90;;;;;;4165679;28;20044;-72
2021/10/01 01:54:54;;;;;;;2.60;1.08;;;12.50;99.90;;;;;;4170971;28;20638;-73
2021/10/01 01:56:56;;;;;;;3.73;1.30;;;12.50;99.90;;;;;;4173442;28;20462;-73
2021/10/01 01:59:00;;;;;;;3.88;1.63;;;12.50;99.90;;;;;;4162308;28;20385;-72
2021/10/01 02:01:03;;;;;;;4.03;1.17;;;12.50;99.90;;;;;;4167744;28;20049;-73
2021/10/01 02:03:05;;;;;;;4.80;1.48;;;12.50;99.90;;;;;;4168729;28;20037;-73
2021/10/01 02:05:07;;;;;;;6.28;1.40;;;12.50;99.90;;;;;;4158677;28;20036;-72
2021/10/01 02:07:08;;;;;;;5.00;1.20;;;12.50;99.90;;;;;;4158187;28;20389;-73
2021/10/01 02:09:11;;;;;;;4.90;1.55;;;12.40;99.90;;;;;;4158921;28;20033;-73
2021/10/01 02:11:13;;;;;;;5.40;1.67;;;12.50;99.90;;;;;;4166708;28;20040;-73
2021/10/01 02:13:14;;;;;;;4.03;1.47;;;12.40;99.90;;;;;;4165611;28;20044;-73
2021/10/01 02:15:16;;;;;;;6.53;1.65;;;12.40;99.90;;;;;;4163113;28;20051;-73
2021/10/01 02:17:19;;;;;;;4.97;1.40;;;12.50;99.90;;;;;;4158003;28;20068;-72
2021/10/01 02:19:21;;;;;;;4.07;1.30;;;12.40;99.90;;;;;;4148151;28;20037;-73
2021/10/01 02:21:23;;;;;;;5.95;1.48;;;12.50;99.90;;;;;;4159404;28;20050;-73
2021/10/01 02:23:24;;;;;;;4.80;1.63;;;12.40;99.90;;;;;;4167405;28;20045;-72
2021/10/01 02:27:51;;;;;;;2.58;1.10;;;12.40;99.90;;;;;;4167837;28;20452;-72
2021/10/01 02:30:02;;;;;;;5.90;1.50;;;12.40;99.90;;;;;;4158280;28;20033;-72
2021/10/01 02:32:18;;;;;;;6.53;1.85;;;12.30;99.90;;;;;;4159199;28;20037;-72
2021/10/01 02:34:42;;;;;;;6.25;1.80;;;12.30;99.90;;;;;;4157398;28;20064;-72
2021/10/01 02:36:42;;;;;;;5.20;1.13;;;12.20;99.90;;;;;;4170676;28;20037;-73
2021/10/01 02:38:43;;;;;;;3.45;1.63;;;12.20;99.90;;;;;;4172341;28;20660;-72
2021/10/01 02:40:44;;;;;;;4.85;1.10;;;12.20;99.90;;;;;;4164831;28;20041;-73
2021/10/01 02:42:44;;;;;;;3.75;1.25;;;12.20;99.90;;;;;;4147996;28;20029;-73
2021/10/01 02:44:46;;;;;;;5.40;1.40;;;12.20;99.90;;;;;;4162985;28;20172;-73
2021/10/01 02:46:47;;;;;;;9.43;1.73;;;12.20;99.90;;;;;;4142655;28;20554;-72
2021/10/01 02:48:48;;;;;;;5.43;1.52;;;12.10;99.90;;;;;;4163968;28;20079;-72
2021/10/01 02:50:57;;;;;;;6.00;1.27;;;12.10;99.90;;;;;;4171647;28;20033;-72
2021/10/01 02:53:06;;;;;;;4.47;1.08;;;12.00;99.90;;;;;;4165305;28;20463;-73
2021/10/01 02:55:21;;;;;;;8.30;1.60;;;12.10;99.90;;;;;;4154106;28;20029;-72
2021/10/01 02:57:26;;;;;;;3.03;1.33;;;12.10;99.90;;;;;;4118056;28;1061804;-72
2021/10/01 02:59:29;;;;;;;5.97;1.65;;;12.00;99.90;;;;;;4156917;28;20038;-72
2021/10/01 03:01:30;;;;;;;;;;;12.00;99.90;;;;;;4167292;28;20104;-72
2021/10/01 03:03:36;;;;;;;3.20;1.27;;;12.10;99.90;;;;;;4172508;28;20291;-73
2021/10/01 03:05:40;;;;;;;6.28;1.63;;;12.10;99.90;;;;;;4172671;28;20033;-73
2021/10/01 03:07:43;;;;;;;2.05;1.20;;;12.00;99.90;;;;;;4175924;28;20497;-72
2021/10/01 03:09:47;;;;;;;3.85;1.48;;;12.00;99.90;;;;;;4178974;28;20037;-72
2021/10/01 03:11:49;;;;;;;5.18;1.40;;;12.00;99.90;;;;;;4168785;28;20095;-73
2021/10/01 03:13:52;;;;;;;2.25;1.05;;;12.00;99.90;;;;;;4178112;28;20046;-72
2021/10/01 03:15:59;;;;;;;6.35;1.10;;;12.10;99.90;;;;;;4178885;28;20048;-73
2021/10/01 03:18:00;;;;;;;3.13;1.23;;;12.10;99.90;;;;;;4177585;28;20032;-72
2021/10/01 03:20:01;;;;;;;2.67;1.15;;;12.10;99.90;;;;;;4173782;28;20050;-73
2021/10/01 03:22:03;;;;;;;5.88;1.52;;;12.10;99.90;;;;;;4174286;28;20057;-73
2021/10/01 03:24:05;;;;;;;3.70;1.30;;;12.10;99.90;;;;;;4176258;28;20115;-72
2021/10/01 03:26:06;;;;;;;5.45;1.42;;;12.10;99.90;;;;;;4171989;28;20045;-73
2021/10/01 03:28:07;;;;;;;3.67;1.42;;;12.10;99.90;;;;;;4173620;28;20025;-72
2021/10/01 03:30:09;;;;;;;3.90;1.17;;;12.10;99.90;;;;;;4169890;28;20032;-73
2021/10/01 03:32:11;;;;;;;3.83;1.23;;;12.10;99.90;;;;;;4170963;28;20025;-73
2021/10/01 03:34:12;;;;;;;3.15;1.17;;;12.10;99.90;;;;;;4173108;28;20643;-72
2021/10/01 03:36:13;;;;;;;6.07;1.52;;;12.10;99.90;;;;;;4178573;28;20052;-72
2021/10/01 03:38:14;;;;;;;3.65;1.35;;;12.20;99.90;;;;;;4176880;28;20044;-72
2021/10/01 03:40:15;;;;;;;6.03;1.42;;;12.10;99.90;;;;;;4173377;28;20102;-72
2021/10/01 03:42:15;;;;;;;3.30;1.40;;;12.10;99.90;;;;;;4175381;28;20041;-73
2021/10/01 03:44:16;;;;;;;5.00;1.48;;;12.20;99.90;;;;;;4180659;28;20040;-72
2021/10/01 03:46:17;;;;;;;4.28;1.20;;;12.20;99.90;;;;;;4180179;28;20503;-73
2021/10/01 03:48:18;;;;;;;2.30;1.02;;;12.20;99.90;;;;;;4176844;28;20045;-72
2021/10/01 03:50:19;;;;;;;3.63;1.27;;;12.20;99.90;;;;;;4177693;28;20045;-72
2021/10/01 03:52:19;;;;;;;7.88;1.45;;;12.30;99.90;;;;;;4178371;28;20124;-73
2021/10/01 03:54:20;;;;;;;8.02;1.85;;;12.30;99.90;;;;;;4158610;28;20042;-73
2021/10/01 03:56:21;;;;;;;1.90;0.73;;;12.30;99.90;;;;;;4177760;28;20037;-72
2021/10/01 03:58:21;;;;;;;6.53;1.55;;;12.30;99.90;;;;;;4181201;28;20101;-72
2021/10/01 04:00:22;;;;;;;4.15;1.25;;;12.40;99.90;;;;;;4186594;28;20103;-72
2021/10/01 04:02:22;;;;;;;4.90;1.27;;;12.40;99.90;;;;;;4180924;28;20036;-72
2021/10/01 04:04:24;;;;;;;4.95;1.50;;;12.40;99.90;;;;;;4179993;28;20097;-72
2021/10/01 04:06:24;;;;;;;8.18;1.95;;;12.40;99.90;;;;;;4178314;28;20141;-72
2021/10/01 04:08:25;;;;;;;4.97;1.33;;;12.40;99.90;;;;;;4180425;28;20052;-72
2021/10/01 04:10:25;;;;;;;6.90;1.88;;;12.40;99.90;;;;;;4179117;28;20073;-72
2021/10/01 04:12:27;;;;;;;4.30;1.58;;;12.50;99.90;;;;;;4179491;28;20036;-72
2021/10/01 04:14:28;;;;;;;4.28;1.50;;;12.40;99.90;;;;;;4179536;28;20032;-72
2021/10/01 04:16:28;;;;;;;3.17;1.58;;;12.40;99.90;;;;;;4166318;28;20505;-72
2021/10/01 04:18:29;;;;;;;5.97;1.52;;;12.50;99.90;;;;;;4180890;28;20040;-72
2021/10/01 04:20:30;;;;;;;5.30;1.50;;;12.50;99.90;;;;;;4182423;28;20116;-73
2021/10/01 04:22:30;;;;;;;2.83;1.48;;;12.50;99.90;;;;;;4176446;28;20094;-72
2021/10/01 04:24:31;;;;;;;6.88;1.52;;;12.40;99.90;;;;;;4182093;28;20571;-72
2021/10/01 04:26:32;;;;;;;5.60;1.75;;;12.40;99.90;;;;;;4183497;28;20036;-72
2021/10/01 04:28:32;;;;;;;4.63;1.58;;;12.40;99.90;;;;;;4180668;28;20040;-72
2021/10/01 04:30:38;;;;;;;4.70;1.35;;;12.50;99.90;;;;;;4183423;28;20021;-72
2021/10/01 04:32:45;;;;;;;5.75;1.63;;;12.50;99.90;;;;;;4181166;28;20090;-73
2021/10/01 04:35:00;;;;;;;6.10;1.67;;;12.40;99.90;;;;;;4183710;28;20103;-72
2021/10/01 04:37:01;;;;;;;4.32;1.65;;;12.50;99.90;;;;;;4179639;28;20070;-73
2021/10/01 04:39:03;;;;;;;8.15;1.58;;;12.50;99.90;;;;;;4183302;28;20394;-73
2021/10/01 04:41:04;;;;;;;4.95;1.42;;;12.40;99.90;;;;;;4183400;28;20059;-72
2021/10/01 04:43:05;;;;;;;7.07;1.70;;;12.40;99.90;;;;;;4178763;28;20115;-72
2021/10/01 04:45:06;;;;;;;5.78;1.65;;;12.50;99.90;;;;;;4182902;28;21444;-72
2021/10/01 04:47:07;;;;;;;6.03;1.73;;;12.50;99.90;;;;;;4179167;28;20108;-72
2021/10/01 04:49:08;;;;;;;4.05;1.63;;;12.40;99.90;;;;;;4174066;28;20053;-72
2021/10/01 04:51:08;;;;;;;3.95;1.73;;;12.40;99.90;;;;;;4170102;28;20033;-72
2021/10/01 04:53:09;;;;;;;8.00;2.15;;;12.40;99.90;;;;;;4177483;28;20032;-73
2021/10/01 04:55:09;;;;;;;6.15;1.70;;;12.40;99.90;;;;;;4185175;28;20029;-72
2021/10/01 04:57:10;;;;;;;7.13;2.10;;;12.40;99.90;;;;;;4180058;28;20560;-72
2021/10/01 04:59:11;;;;;;;5.75;1.67;;;12.30;99.90;;;;;;4170010;28;20653;-72
2021/10/01 05:01:11;;;;;;;4.60;1.55;;;12.30;99.90;;;;;;4160385;28;20030;-71
2021/10/01 05:03:13;;;;;;;5.30;1.45;;;12.40;99.90;;;;;;4156936;28;20106;-71
2021/10/01 05:05:14;;;;;;;7.57;1.77;;;12.40;99.90;;;;;;4173796;28;20072;-71
2021/10/01 05:07:16;;;;;;;5.15;1.73;;;12.40;99.90;;;;;;4171569;28;20040;-72
2021/10/01 05:09:16;;;;;;;5.85;1.67;;;12.30;99.90;;;;;;4165903;28;20698;-72
2021/10/01 05:11:17;;;;;;;7.57;2.20;;;12.30;99.90;;;;;;4170782;28;20091;-72
2021/10/01 05:13:18;;;;;;;5.95;1.85;;;12.30;99.90;;;;;;4168357;28;20691;-72
2021/10/01 05:15:19;;;;;;;4.38;1.65;;;12.40;99.90;;;;;;4171063;28;20029;-72
2021/10/01 05:17:22;;;;;;;5.65;1.52;;;12.40;99.90;;;;;;4170296;28;20032;-72
2021/10/01 05:19:23;;;;;;;5.47;1.73;;;12.40;99.90;;;;;;4170813;28;20045;-72
2021/10/01 05:21:23;;;;;;;8.32;2.03;;;12.40;99.90;;;;;;4173305;28;20028;-72
2021/10/01 05:23:24;;;;;;;3.30;1.48;;;12.40;99.90;;;;;;4152052;28;20946;-72
2021/10/01 05:25:26;;;;;;;7.15;1.90;;;12.40;99.90;;;;;;4161351;28;20032;-71
2021/10/01 05:27:28;;;;;;;4.25;1.58;;;12.40;99.90;;;;;;4168978;28;20044;-72
2021/10/01 05:29:29;;;;;;;10.02;1.50;;;12.40;99.90;;;;;;4166699;28;20060;-73
2021/10/01 05:31:29;;;;;;;5.07;1.65;;;12.50;99.90;;;;;;4171782;28;20292;-73
2021/10/01 05:33:30;;;;;;;7.43;2.05;;;12.50;99.90;;;;;;4168531;28;20051;-71
2021/10/01 05:35:35;;;;;;;4.30;1.48;;;12.50;99.90;;;;;;4166212;28;20025;-71
2021/10/01 05:37:36;;;;;;;5.32;1.90;;;12.50;99.90;;;;;;4169370;28;20731;-71
2021/10/01 05:39:36;;;;;;;5.85;1.80;;;12.50;99.90;;;;;;4166676;28;20045;-71
2021/10/01 05:41:37;;;;;;;6.25;1.85;;;12.40;99.90;;;;;;4167251;28;20489;-71
2021/10/01 05:43:37;;;;;;;6.32;1.77;;;12.40;99.90;;;;;;4166371;28;20044;-71
2021/10/01 05:45:40;;;;;;;4.53;1.88;;;12.40;99.90;;;;;;4164942;28;20029;-71
2021/10/01 05:47:41;;;;;;;4.70;2.13;;;12.40;99.90;;;;;;4167675;28;20727;-71
2021/10/01 05:49:43;;;;;;;5.25;1.90;;;12.40;99.90;;;;;;4167101;28;20734;-71
2021/10/01 05:51:48;;;;;;;12.48;1.77;;;12.40;99.90;;;;;;4163366;28;20033;-71
2021/10/01 05:54:02;;;;;;;6.78;1.88;;;12.30;99.90;;;;;;4165170;28;20090;-71
2021/10/01 05:56:07;;;;;;;8.10;1.50;;;12.40;99.90;;;;;;4166510;28;20049;-71
2021/10/01 05:58:08;;;;;;;5.53;1.50;;;12.40;99.90;;;;;;4162013;28;20608;-71
2021/10/01 06:00:10;;;;;;;5.93;1.83;;;12.30;99.90;;;;;;4167840;28;20040;-71
2021/10/01 06:02:12;;;;;;;7.72;1.65;;;12.40;99.90;;;;;;4171660;28;20041;-71
2021/10/01 06:04:14;;;;;;;3.10;1.27;;;12.40;99.90;;;;;;4168843;28;20037;-71
2021/10/01 06:06:14;;;;;;;5.82;1.73;;;12.40;99.90;;;;;;4172582;28;20041;-71
2021/10/01 06:08:15;;;;;;;2.55;1.27;;;12.40;99.90;;;;;;4168080;28;20908;-71
2021/10/01 06:10:16;;;;;;;5.72;1.60;;;12.50;99.90;;;;;;4167554;28;20041;-71
2021/10/01 06:12:17;;;;;;;8.70;2.22;;;12.50;99.90;;;;;;4170632;28;20649;-71
2021/10/01 06:14:22;;;;;;;4.53;1.67;;;12.50;99.90;;;;;;4169068;28;20036;-71
2021/10/01 06:16:23;;;;;;;3.60;1.42;;;12.50;99.90;;;;;;4170735;28;20155;-71
2021/10/01 06:18:23;;;;;;;4.47;1.83;;;12.50;99.90;;;;;;4170464;28;20685;-71
2021/10/01 06:20:24;;;;;;;5.88;1.50;;;12.50;99.90;;;;;;4171190;28;20098;-71
2021/10/01 06:22:24;;;;;;;4.80;1.50;;;12.50;99.90;;;;;;4187918;28;20032;-71
2021/10/01 06:24:25;;;;;;;4.70;1.52;;;12.50;99.90;;;;;;4168684;28;20114;-71
2021/10/01 06:26:26;;;;;;;6.50;1.45;;;12.50;99.90;;;;;;4170439;28;20022;-71
2021/10/01 06:28:26;;;;;;;5.35;1.42;;;12.50;99.90;;;;;;4170412;28;20041;-71
2021/10/01 06:30:27;;;;;;;7.05;1.92;;;12.50;99.90;;;;;;4170047;28;20120;-71
2021/10/01 06:32:34;;;;;;;4.85;1.70;;;12.50;99.90;;;;;;4153825;28;20119;-71
2021/10/01 06:34:35;;;;;;;3.92;1.48;;;12.50;99.90;;;;;;4170402;28;20021;-72
2021/10/01 06:36:36;;;;;;;2.83;1.50;;;12.50;99.90;;;;;;4169687;28;20454;-71
2021/10/01 06:38:36;;;;;;;6.57;1.70;;;12.50;99.90;;;;;;4169587;28;20083;-71
2021/10/01 06:40:37;;;;;;;3.22;1.33;;;12.50;99.90;;;;;;4168697;28;20032;-71
2021/10/01 06:42:41;;;;;;;6.20;1.48;;;12.50;99.90;;;;;;4170830;28;20041;-71
2021/10/01 06:44:45;;;;;;;3.47;1.20;;;12.50;99.90;;;;;;4167865;28;20041;-71
2021/10/01 06:46:49;;;;;;;6.13;1.55;;;12.60;99.90;;;;;;4169531;28;20037;-71
2021/10/01 06:49:17;;;;;;;4.57;1.50;;;12.60;99.90;;;;;;4168310;28;20094;-71
2021/10/01 07:22:05;;;;;;;3.67;1.23;;;12.80;99.90;;;;;;4169450;28;20028;-71
2021/10/01 07:35:57;;;;;;;4.85;1.58;;;13.00;99.90;;;;;;4173397;28;20112;-71
2021/10/01 08:19:59;;;;;;;5.80;1.88;;;14.00;99.90;;;;;;4170743;28;20045;-71
2021/10/01 08:22:01;;;;;;;4.63;1.45;;;14.10;99.90;;;;;;4172446;28;20432;-71
2021/10/01 08:24:02;;;;;;;4.97;1.65;;;14.30;99.90;;;;;;4171721;28;20029;-70
2021/10/01 08:26:03;;;;;;;7.70;2.00;;;14.50;99.90;;;;;;4173415;28;20043;-71
2021/10/01 08:28:04;;;;;;;7.65;1.92;;;14.60;99.90;;;;;;4171381;28;20026;-70
2021/10/01 08:30:08;;;;;;;8.23;2.03;;;14.80;99.90;;;;;;4169614;28;20048;-71
2021/10/01 08:32:09;;;;;;;3.75;1.60;;;14.90;99.90;;;;;;4171370;28;20032;-71
2021/10/01 08:34:09;;;;;;;8.15;1.73;;;15.10;99.90;;;;;;4170111;28;20024;-71
2021/10/01 08:36:11;;;;;;;7.35;2.10;;;15.20;99.90;;;;;;4170994;28;20047;-71
2021/10/01 08:38:11;;;;;;;7.03;1.77;;;15.30;99.90;;;;;;4170170;28;20048;-71
2021/10/01 08:40:12;;;;;;;5.65;1.60;;;15.30;99.90;;;;;;4170990;28;20106;-71
2021/10/01 08:42:13;;;;;;;4.72;1.40;;;15.40;99.90;;;;;;4171870;28;20029;-71
2021/10/01 08:44:14;;;;;;;5.53;1.48;;;15.40;99.90;;;;;;4169641;28;20082;-71
2021/10/01 08:46:16;;;;;;;7.18;1.58;;;15.50;99.90;;;;;;4170951;28;20115;-71
2021/10/01 08:48:19;;;;;;;4.85;1.70;;;15.60;99.90;;;;;;4152742;28;20034;-71
2021/10/01 08:50:21;;;;;;;3.60;1.48;;;15.70;99.90;;;;;;4168847;28;20037;-71
2021/10/01 08:52:22;;;;;;;4.25;1.45;;;15.80;99.90;;;;;;4171049;28;20048;-71
2021/10/01 08:54:25;;;;;;;5.63;1.60;;;15.90;99.90;;;;;;4169365;28;20101;-71
2021/10/01 08:56:26;;;;;;;7.13;1.70;;;15.90;99.90;;;;;;4168900;28;20120;-71
2021/10/01 08:58:28;;;;;;;4.15;1.48;;;15.90;99.90;;;;;;4171257;28;20049;-71
2021/10/01 09:00:28;;;;;;;5.25;1.17;;;15.90;99.90;;;;;;4167792;28;20034;-71
2021/10/01 09:02:29;;;;;;;3.83;1.52;;;15.90;99.90;;;;;;4171422;28;20045;-71
2021/10/01 09:04:30;;;;;;;7.22;1.85;;;15.80;99.90;;;;;;4168650;28;20086;-71
2021/10/01 09:06:30;;;;;;;4.88;1.80;;;15.80;99.90;;;;;;4170669;28;20726;-71
2021/10/01 09:08:33;;;;;;;2.47;1.33;;;15.80;99.90;;;;;;4169428;28;20037;-71
2021/10/01 09:10:33;;;;;;;4.18;1.55;;;15.90;99.90;;;;;;4167694;28;20479;-71
2021/10/01 09:12:34;;;;;;;4.43;1.42;;;15.90;99.90;;;;;;4169642;28;20121;-71
2021/10/01 09:14:52;;;;;;;3.90;1.42;;;16.00;99.90;;;;;;4167305;28;20033;-73
2021/10/01 09:16:53;;;;;;;6.15;1.50;;;16.10;99.90;;;;;;4168949;28;20047;-71
2021/10/01 09:18:53;;;;;;;4.90;1.50;;;16.20;99.90;;;;;;4167745;28;20041;-71
2021/10/01 09:21:21;;;;;;;6.03;1.45;;;16.30;99.90;;;;;;4167755;28;20044;-71
2021/10/01 09:23:25;;;;;;;6.65;1.88;;;16.40;99.90;;;;;;4170435;28;20033;-71
2021/10/01 09:25:25;;;;;;;6.18;1.38;;;16.60;99.90;;;;;;4170162;28;20041;-71
2021/10/01 09:27:34;;;;;;;6.63;1.80;;;16.70;99.90;;;;;;4161753;28;20041;-71
2021/10/01 09:29:37;;;;;;;3.55;1.52;;;16.80;99.90;;;;;;4152059;28;20475;-71
2021/10/01 09:31:43;;;;;;;5.55;1.58;;;16.90;99.90;;;;;;4170221;28;20025;-71
2021/10/01 09:33:43;;;;;;;5.70;1.65;;;17.00;99.90;;;;;;4170249;28;20130;-71
2021/10/01 09:35:45;;;;;;;6.40;1.67;;;17.10;99.90;;;;;;4168055;28;20057;-71
2021/10/01 09:37:46;;;;;;;4.32;1.58;;;17.10;99.90;;;;;;4170583;28;20048;-71
2021/10/01 09:39:55;;;;;;;4.07;1.48;;;17.20;99.90;;;;;;4168454;28;20091;-71
2021/10/01 09:41:59;;;;;;;6.47;1.42;;;17.30;99.90;;;;;;4167317;28;20691;-71
2021/10/01 09:44:07;;;;;;;3.45;1.23;;;17.40;99.90;;;;;;4170751;28;20037;-71
2021/10/01 09:46:13;;;;;;;7.60;1.48;;;17.50;99.90;;;;;;4170249;28;20126;-71
2021/10/01 09:48:16;;;;;;;3.00;1.02;;;17.60;99.90;;;;;;4168286;28;20477;-71
2021/10/01 09:50:27;;;;;;;2.95;1.23;;;17.70;99.90;;;;;;4169730;28;20090;-71
2021/10/01 09:52:46;;;;;;;3.00;1.17;;;17.80;99.90;;;;;;4171410;28;20094;-71
2021/10/01 09:54:47;;;;;;;8.77;1.77;;;17.90;99.90;;;;;;4167312;28;20029;-71
2021/10/01 09:56:48;;;;;;;5.80;1.17;;;17.90;99.90;;;;;;4170147;28;20054;-71
2021/10/01 09:59:12;;;;;;;3.97;1.70;;;17.90;99.90;;;;;;4170703;28;20037;-71
2021/10/01 10:01:13;;;;;;;5.45;1.30;;;18.00;99.90;;;;;;4168436;28;20033;-71
2021/10/01 10:03:35;;;;;;;4.47;1.23;;;17.90;99.90;;;;;;4169570;28;20040;-71
2021/10/01 10:05:54;;;;;;;5.25;1.40;;;17.90;99.90;;;;;;4169081;28;20468;-71
2021/10/01 10:07:55;;;;;;;4.10;1.30;;;17.80;99.90;;;;;;4171883;28;20578;-71
2021/10/01 10:09:57;;;;;;;3.83;1.35;;;17.80;99.90;;;;;;4170895;28;20041;-71
2021/10/01 10:11:58;;;;;;;4.57;1.42;;;17.80;99.90;;;;;;4168328;28;20568;-71
2021/10/01 10:13:59;;;;;;;3.67;1.20;;;17.90;99.90;;;;;;4169894;28;20057;-71
2021/10/01 10:16:12;;;;;;;2.83;1.30;;;18.00;99.90;;;;;;4170710;28;24652;-71
2021/10/01 10:18:19;;;;;;;4.50;1.50;;;18.00;99.90;;;;;;4163185;28;20045;-71
2021/10/01 10:20:21;;;;;;;3.60;1.27;;;18.10;99.90;;;;;;4166148;28;20420;-71
2021/10/01 10:22:22;;;;;;;4.30;1.20;;;18.10;99.90;;;;;;4168735;28;20052;-71
2021/10/01 10:24:23;;;;;;;3.53;1.27;;;18.10;99.90;;;;;;4168835;28;20459;-71
2021/10/01 10:26:25;;;;;;;3.25;1.23;;;18.10;99.90;;;;;;4166359;28;20126;-71
2021/10/01 10:28:25;;;;;;;9.43;1.17;;;18.10;99.90;;;;;;4168996;28;20033;-71
2021/10/01 10:30:26;;;;;;;2.40;1.08;;;18.10;99.90;;;;;;4168174;28;20039;-71
2021/10/01 10:32:30;;;;;;;3.47;0.90;;;18.10;99.90;;;;;;4168383;28;20033;-71
2021/10/01 10:34:31;;;;;;;5.28;1.60;;;18.10;99.90;;;;;;4166268;28;20029;-72
2021/10/01 10:36:38;;;;;;;2.72;1.13;;;18.20;99.90;;;;;;4169079;28;20110;-71
2021/10/01 10:38:38;;;;;;;3.00;1.10;;;18.20;99.90;;;;;;4166855;28;20098;-71
2021/10/01 10:40:41;;;;;;;4.35;1.00;;;18.30;99.90;;;;;;4166615;28;20104;-72
2021/10/01 10:42:49;;;;;;;5.35;1.20;;;18.40;99.90;;;;;;4164990;28;20033;-71
2021/10/01 10:44:56;;;;;;;3.75;1.33;;;18.40;99.90;;;;;;4168431;28;20120;-71
2021/10/01 10:46:57;;;;;;;3.78;1.38;;;18.50;99.90;;;;;;4167305;28;20420;-71
2021/10/01 10:49:20;;;;;;;1.42;0.90;;;18.60;99.90;;;;;;4150131;28;20033;-71
2021/10/01 10:51:21;;;;;;;4.47;1.40;;;18.60;99.90;;;;;;4169086;28;20045;-71
2021/10/01 10:53:25;;;;;;;4.05;1.27;;;18.70;99.90;;;;;;4169427;28;20040;-72
2021/10/01 10:55:28;;;;;;;2.17;1.13;;;18.80;99.90;;;;;;4165892;28;20053;-71
2021/10/01 10:57:30;;;;;;;4.07;1.23;;;18.80;99.90;;;;;;4169275;28;20044;-71
2021/10/01 10:59:31;;;;;;;6.40;1.30;;;18.80;99.90;;;;;;4167912;28;20092;-71
2021/10/01 11:01:34;;;;;;;9.35;1.60;;;18.90;99.90;;;;;;4170051;28;20025;-71
2021/10/01 11:03:35;;;;;;;4.90;0.95;;;19.00;99.90;;;;;;4167692;28;20040;-71
2021/10/01 11:05:35;;;;;;;4.07;0.80;;;19.00;99.90;;;;;;4167978;28;20029;-71
2021/10/01 11:07:49;;;;;;;4.30;1.40;;;19.00;99.90;;;;;;4170932;28;20036;-71
2021/10/01 11:09:50;;;;;;;2.88;1.00;;;19.00;99.90;;;;;;4171285;28;20041;-71
2021/10/01 11:11:54;;;;;;;2.97;1.15;;;19.10;99.90;;;;;;4172369;28;20079;-71
2021/10/01 11:14:17;;;;;;;3.30;1.08;;;19.10;99.90;;;;;;4172009;28;20040;-71
2021/10/01 11:16:19;;;;;;;5.03;1.20;;;19.20;99.90;;;;;;4170091;28;20056;-71
2021/10/01 11:18:23;;;;;;;2.63;1.00;;;19.20;99.90;;;;;;4173134;28;20152;-71
2021/10/01 11:20:37;;;;;;;5.68;1.13;;;19.30;99.90;;;;;;4172252;28;20029;-71
2021/10/01 11:22:41;;;;;;;2.40;1.02;;;19.40;99.90;;;;;;4172131;28;20037;-71
2021/10/01 11:24:47;;;;;;;6.35;1.17;;;19.40;99.90;;;;;;4167520;28;20116;-71
2021/10/01 11:26:58;;;;;;;7.30;1.55;;;19.40;99.90;;;;;;4172677;28;20049;-71
2021/10/01 11:29:00;;;;;;;5.90;1.38;;;19.40;99.90;;;;;;4171972;28;20795;-70
2021/10/01 11:31:01;;;;;;;6.07;0.70;;;19.30;99.40;;;;;;4171107;28;20041;-71
2021/10/01 11:33:12;;;;;;;3.03;0.80;;;19.20;99.60;;;;;;4171475;28;20037;-70
2021/10/01 11:35:14;;;;;;;2.58;0.90;;;19.30;99.90;;;;;;4167338;28;20061;-70
2021/10/01 11:37:26;;;;;;;5.20;1.38;;;19.20;99.90;;;;;;4169207;28;20112;-70
2021/10/01 11:39:27;;;;;;;3.72;1.30;;;19.30;99.90;;;;;;4170152;28;20052;-71
2021/10/01 11:41:28;;;;;;;7.13;1.17;;;19.30;99.90;;;;;;4172642;28;20037;-71
2021/10/01 11:43:28;;;;;;;7.20;0.88;;;19.40;99.90;;;;;;4172160;28;20231;-72
2021/10/01 11:45:35;;;;;;;3.22;1.02;;;19.40;99.80;;;;;;4171464;28;21247;-71
2021/10/01 11:47:37;;;;;;;4.88;1.33;;;19.40;99.90;;;;;;4170792;28;20039;-71
2021/10/01 11:49:38;;;;;;;4.15;1.20;;;19.50;99.90;;;;;;4169888;28;20032;-72
2021/10/01 11:51:40;;;;;;;3.92;1.10;;;19.50;99.90;;;;;;4170802;28;20029;-71
2021/10/01 11:53:40;;;;;;;1.10;0.80;;;19.60;99.90;;;;;;4171359;28;20633;-72
2021/10/01 11:55:50;;;;;;;2.90;1.00;;;19.60;99.90;;;;;;4170360;28;20033;-71
2021/10/01 11:57:50;;;;;;;3.65;1.20;;;19.60;99.90;;;;;;4169385;28;20055;-73
2021/10/01 12:00:04;;;;;;;4.60;1.35;;;19.60;99.30;;;;;;4172181;28;20033;-71
2021/10/01 12:02:05;;;;;;;2.67;0.98;;;19.60;99.30;;;;;;4171347;28;20037;-71
2021/10/01 12:04:05;;;;;;;4.32;1.10;;;19.60;98.90;;;;;;4169861;28;20044;-71
2021/10/01 12:06:06;;;;;;;2.80;1.00;;;19.60;98.90;;;;;;4171492;28;20095;-72
2021/10/01 12:08:09;;;;;;;1.17;0.68;;;19.60;98.40;;;;;;4140264;28;20165;-72
2021/10/01 12:10:10;;;;;;;3.42;1.10;;;19.70;98.40;;;;;;4164895;28;20112;-72
2021/10/01 12:12:10;;;;;;;4.80;1.52;;;19.70;97.60;;;;;;4172002;28;20519;-72